sensor_id;sensor_type;location;lat;lon;timestamp;P1;durP1;ratioP1;P2;durP2;ratioP2
61338;SDS011;47213;52.362;4.606;2024-02-26T00:07:00;15.00;;;9.00;;
61338;SDS011;47213;52.362;4.606;2024-02-26T00:17:00;12.70;;;8.40;;
61338;SDS011;47213;52.362;4.606;2024-02-26T00:27:00;13.30;;;8.20;;
61338;SDS011;47213;52.362;4.606;2024-02-26T00:37:00;12.40;;;7.50;;
61338;SDS011;47213;52.362;4.606;2024-02-26T00:46:59;11.10;;;6.50;;
61338;SDS011;47213;52.362;4.606;2024-02-26T00:56:59;10.60;;;5.80;;
61338;SDS011;47213;52.362;4.606;2024-02-26T01:06:59;10.60;;;5.60;;
61338;SDS011;47213;52.362;4.606;2024-02-26T01:16:58;10.20;;;6.60;;
61338;SDS011;47213;52.362;4.606;2024-02-26T01:26:58;11.10;;;6.00;;
61338;SDS011;47213;52.362;4.606;2024-02-26T01:36:58;11.10;;;5.90;;
61338;SDS011;47213;52.362;4.606;2024-02-26T01:46:58;10.50;;;6.00;;
61338;SDS011;47213;52.362;4.606;2024-02-26T01:56:57;11.30;;;6.90;;
61338;SDS011;47213;52.362;4.606;2024-02-26T02:06:57;12.70;;;6.60;;
61338;SDS011;47213;52.362;4.606;2024-02-26T02:16:57;12.40;;;7.40;;
61338;SDS011;47213;52.362;4.606;2024-02-26T02:26:57;14.10;;;7.90;;
61338;SDS011;47213;52.362;4.606;2024-02-26T02:36:56;15.10;;;8.70;;
61338;SDS011;47213;52.362;4.606;2024-02-26T02:46:56;16.80;;;9.40;;
61338;SDS011;47213;52.362;4.606;2024-02-26T02:56:56;16.80;;;9.20;;
61338;SDS011;47213;52.362;4.606;2024-02-26T03:06:55;15.50;;;8.40;;
61338;SDS011;47213;52.362;4.606;2024-02-26T03:16:56;15.20;;;9.20;;
61338;SDS011;47213;52.362;4.606;2024-02-26T03:26:55;15.80;;;8.90;;
61338;SDS011;47213;52.362;4.606;2024-02-26T03:36:55;16.10;;;9.40;;
61338;SDS011;47213;52.362;4.606;2024-02-26T03:46:54;16.90;;;9.90;;
61338;SDS011;47213;52.362;4.606;2024-02-26T03:56:54;19.50;;;10.50;;
61338;SDS011;47213;52.362;4.606;2024-02-26T04:06:54;18.70;;;9.80;;
61338;SDS011;47213;52.362;4.606;2024-02-26T04:16:54;19.80;;;11.20;;
61338;SDS011;47213;52.362;4.606;2024-02-26T04:26:53;19.20;;;11.00;;
61338;SDS011;47213;52.362;4.606;2024-02-26T04:36:53;22.80;;;12.80;;
61338;SDS011;47213;52.362;4.606;2024-02-26T04:56:52;24.80;;;13.90;;
61338;SDS011;47213;52.362;4.606;2024-02-26T05:16:51;23.60;;;14.00;;
61338;SDS011;47213;52.362;4.606;2024-02-26T05:26:51;23.00;;;13.80;;
61338;SDS011;47213;52.362;4.606;2024-02-26T05:36:51;21.90;;;12.70;;
61338;SDS011;47213;52.362;4.606;2024-02-26T05:46:50;20.40;;;11.60;;
61338;SDS011;47213;52.362;4.606;2024-02-26T05:56:50;20.40;;;10.30;;
61338;SDS011;47213;52.362;4.606;2024-02-26T06:06:50;19.10;;;10.60;;
61338;SDS011;47213;52.362;4.606;2024-02-26T06:16:49;17.20;;;10.00;;
61338;SDS011;47213;52.362;4.606;2024-02-26T06:26:49;17.30;;;9.00;;
61338;SDS011;47213;52.362;4.606;2024-02-26T06:36:49;16.00;;;8.70;;
61338;SDS011;47213;52.362;4.606;2024-02-26T06:46:48;12.60;;;7.50;;
61338;SDS011;47213;52.362;4.606;2024-02-26T06:56:48;11.40;;;6.80;;
61338;SDS011;47213;52.362;4.606;2024-02-26T07:06:48;11.20;;;5.90;;
61338;SDS011;47213;52.362;4.606;2024-02-26T07:16:47;10.50;;;5.30;;
61338;SDS011;47213;52.362;4.606;2024-02-26T07:26:47;10.00;;;5.20;;
61338;SDS011;47213;52.362;4.606;2024-02-26T07:36:47;9.70;;;4.80;;
61338;SDS011;47213;52.362;4.606;2024-02-26T07:46:46;9.00;;;4.90;;
61338;SDS011;47213;52.362;4.606;2024-02-26T07:56:46;8.90;;;4.80;;
61338;SDS011;47213;52.362;4.606;2024-02-26T08:06:46;9.70;;;4.30;;
61338;SDS011;47213;52.362;4.606;2024-02-26T08:16:45;8.60;;;4.00;;
61338;SDS011;47213;52.362;4.606;2024-02-26T08:36:45;7.00;;;3.60;;
61338;SDS011;47213;52.362;4.606;2024-02-26T08:46:45;8.20;;;4.00;;
61338;SDS011;47213;52.362;4.606;2024-02-26T08:56:44;8.20;;;3.70;;
61338;SDS011;47213;52.362;4.606;2024-02-26T09:06:44;7.40;;;3.90;;
61338;SDS011;47213;52.362;4.606;2024-02-26T09:16:44;8.30;;;3.80;;
61338;SDS011;47213;52.362;4.606;2024-02-26T09:26:43;7.70;;;3.30;;
61338;SDS011;47213;52.362;4.606;2024-02-26T09:36:43;7.10;;;3.70;;
61338;SDS011;47213;52.362;4.606;2024-02-26T09:46:43;7.30;;;3.60;;
61338;SDS011;47213;52.362;4.606;2024-02-26T09:56:45;7.30;;;3.80;;
61338;SDS011;47213;52.362;4.606;2024-02-26T10:16:42;9.10;;;3.90;;
61338;SDS011;47213;52.362;4.606;2024-02-26T10:26:45;8.80;;;3.80;;
61338;SDS011;47213;52.362;4.606;2024-02-26T10:36:42;7.50;;;3.40;;
61338;SDS011;47213;52.362;4.606;2024-02-26T10:56:42;6.80;;;3.30;;
61338;SDS011;47213;52.362;4.606;2024-02-26T11:06:42;7.80;;;3.20;;
61338;SDS011;47213;52.362;4.606;2024-02-26T11:16:41;6.50;;;2.60;;
61338;SDS011;47213;52.362;4.606;2024-02-26T11:26:45;6.00;;;2.90;;
61338;SDS011;47213;52.362;4.606;2024-02-26T11:36:41;6.10;;;2.80;;
61338;SDS011;47213;52.362;4.606;2024-02-26T11:46:42;6.40;;;2.70;;
61338;SDS011;47213;52.362;4.606;2024-02-26T11:56:41;5.90;;;2.60;;
61338;SDS011;47213;52.362;4.606;2024-02-26T12:16:40;5.70;;;2.70;;
61338;SDS011;47213;52.362;4.606;2024-02-26T12:26:41;8.50;;;3.40;;
61338;SDS011;47213;52.362;4.606;2024-02-26T12:36:40;6.90;;;3.00;;
61338;SDS011;47213;52.362;4.606;2024-02-26T12:46:40;7.10;;;3.30;;
61338;SDS011;47213;52.362;4.606;2024-02-26T12:56:40;6.60;;;2.80;;
61338;SDS011;47213;52.362;4.606;2024-02-26T13:06:40;7.10;;;2.90;;
61338;SDS011;47213;52.362;4.606;2024-02-26T13:16:40;6.80;;;2.80;;
61338;SDS011;47213;52.362;4.606;2024-02-26T13:26:40;7.10;;;3.10;;
61338;SDS011;47213;52.362;4.606;2024-02-26T13:36:40;6.20;;;2.70;;
61338;SDS011;47213;52.362;4.606;2024-02-26T13:46:40;9.70;;;3.50;;
61338;SDS011;47213;52.362;4.606;2024-02-26T14:16:40;7.60;;;3.40;;
61338;SDS011;47213;52.362;4.606;2024-02-26T14:26:40;10.20;;;3.60;;
61338;SDS011;47213;52.362;4.606;2024-02-26T14:46:40;8.20;;;3.40;;
61338;SDS011;47213;52.362;4.606;2024-02-26T14:56:40;9.80;;;3.50;;
61338;SDS011;47213;52.362;4.606;2024-02-26T15:06:40;7.90;;;3.40;;
61338;SDS011;47213;52.362;4.606;2024-02-26T15:16:40;9.40;;;3.70;;
61338;SDS011;47213;52.362;4.606;2024-02-26T15:26:40;7.40;;;3.80;;
61338;SDS011;47213;52.362;4.606;2024-02-26T15:36:40;8.00;;;3.50;;
61338;SDS011;47213;52.362;4.606;2024-02-26T15:46:40;11.80;;;4.00;;
61338;SDS011;47213;52.362;4.606;2024-02-26T15:56:40;7.80;;;3.40;;
61338;SDS011;47213;52.362;4.606;2024-02-26T16:06:43;8.30;;;3.70;;
61338;SDS011;47213;52.362;4.606;2024-02-26T16:16:46;9.60;;;3.40;;
61338;SDS011;47213;52.362;4.606;2024-02-26T16:26:39;9.50;;;3.60;;
61338;SDS011;47213;52.362;4.606;2024-02-26T16:46:39;7.00;;;2.80;;
61338;SDS011;47213;52.362;4.606;2024-02-26T17:06:39;6.10;;;2.70;;
61338;SDS011;47213;52.362;4.606;2024-02-26T17:16:39;6.60;;;2.30;;
61338;SDS011;47213;52.362;4.606;2024-02-26T17:26:38;8.30;;;3.20;;
61338;SDS011;47213;52.362;4.606;2024-02-26T17:36:39;35.40;;;20.70;;
61338;SDS011;47213;52.362;4.606;2024-02-26T17:46:38;6.60;;;2.30;;
61338;SDS011;47213;52.362;4.606;2024-02-26T17:56:38;4.80;;;1.90;;
61338;SDS011;47213;52.362;4.606;2024-02-26T18:06:38;3.20;;;1.80;;
61338;SDS011;47213;52.362;4.606;2024-02-26T18:16:37;7.70;;;2.10;;
61338;SDS011;47213;52.362;4.606;2024-02-26T18:26:37;6.40;;;1.80;;
61338;SDS011;47213;52.362;4.606;2024-02-26T18:36:41;4.30;;;2.00;;
61338;SDS011;47213;52.362;4.606;2024-02-26T18:46:43;6.90;;;2.30;;
61338;SDS011;47213;52.362;4.606;2024-02-26T18:56:37;6.10;;;2.00;;
61338;SDS011;47213;52.362;4.606;2024-02-26T19:06:36;8.00;;;3.20;;
61338;SDS011;47213;52.362;4.606;2024-02-26T19:16:36;5.50;;;2.00;;
61338;SDS011;47213;52.362;4.606;2024-02-26T19:26:36;5.50;;;1.80;;
61338;SDS011;47213;52.362;4.606;2024-02-26T19:36:36;7.80;;;2.10;;
61338;SDS011;47213;52.362;4.606;2024-02-26T19:46:35;7.30;;;2.20;;
61338;SDS011;47213;52.362;4.606;2024-02-26T19:56:35;4.90;;;2.10;;
61338;SDS011;47213;52.362;4.606;2024-02-26T20:16:34;5.40;;;2.30;;
61338;SDS011;47213;52.362;4.606;2024-02-26T20:26:35;5.40;;;2.20;;
61338;SDS011;47213;52.362;4.606;2024-02-26T20:36:34;5.10;;;2.00;;
61338;SDS011;47213;52.362;4.606;2024-02-26T21:06:33;6.30;;;2.20;;
61338;SDS011;47213;52.362;4.606;2024-02-26T21:16:33;6.70;;;2.50;;
61338;SDS011;47213;52.362;4.606;2024-02-26T21:26:32;5.70;;;2.20;;
61338;SDS011;47213;52.362;4.606;2024-02-26T21:36:32;9.20;;;2.60;;
61338;SDS011;47213;52.362;4.606;2024-02-26T21:46:33;6.30;;;2.40;;
61338;SDS011;47213;52.362;4.606;2024-02-26T21:56:31;5.50;;;2.30;;
61338;SDS011;47213;52.362;4.606;2024-02-26T22:06:31;4.00;;;2.10;;
61338;SDS011;47213;52.362;4.606;2024-02-26T22:16:31;4.70;;;2.30;;
61338;SDS011;47213;52.362;4.606;2024-02-26T22:26:30;6.10;;;2.40;;
61338;SDS011;47213;52.362;4.606;2024-02-26T22:36:30;5.80;;;2.70;;
61338;SDS011;47213;52.362;4.606;2024-02-26T22:46:30;5.90;;;2.50;;
61338;SDS011;47213;52.362;4.606;2024-02-26T23:06:29;5.60;;;2.30;;
61338;SDS011;47213;52.362;4.606;2024-02-26T23:16:28;4.50;;;2.50;;
61338;SDS011;47213;52.362;4.606;2024-02-26T23:26:28;7.20;;;2.90;;
61338;SDS011;47213;52.362;4.606;2024-02-26T23:36:28;5.10;;;2.40;;
61338;SDS011;47213;52.362;4.606;2024-02-26T23:46:31;7.30;;;2.70;;
61338;SDS011;47213;52.362;4.606;2024-02-26T23:56:27;5.40;;;2.40;;
